In Rescue
 
Open Full Screen Window  High Contrast Mode
Wind Gusting 16 knots
09
November 29, 2022 10:07 AM EST
Weather Information
Wind Direction
  170 °
Wind Speed
  09 kt (10 mph)
Wind Gust
  16 kt (18 mph)
Variable Wind
130°
190°
Altimeter
30.02 in
Visibility
10 SM
Temperature
09° C
48° F
Dewpoint
06° C
43° F
Humidity
82%
1hr Rain Fall
00.00 in.
24hr Rain Fall
00.00 in.
Sky Condition
Clear
VFR

METAR KI19 291507Z AUTO 17009G16KT 130V190 10SM CLR 09/06 A3002 RMK AO2

FAA Disclaimer: The data displayed is for advisory purposes only and is not to be used for flight planning or operations.